Time;durP1;ratioP1;P1;durP2;ratioP2;P2;SDS_P1;SDS_P2;PMS_P1;PMS_P2;Temp;Humidity;BMP_temperature;BMP_pressure;BME280_temperature;BME280_humidity;BME280_pressure;Samples;Min_cycle;Max_cycle;Signal;HPM_P1;HPM_P2
2023/06/03 00:02:14;;;;;;;9.83;7.30;;;14.50;76.20;;;;;;5133411;27;20484;-74
2023/06/03 00:04:42;;;;;;;8.87;5.80;;;14.50;75.80;;;;;;5133985;27;20533;-74
2023/06/03 00:07:10;;;;;;;7.60;6.10;;;14.40;76.60;;;;;;5133558;27;20845;-74
2023/06/03 00:09:37;;;;;;;8.73;6.17;;;14.40;75.60;;;;;;5133507;27;20473;-74
2023/06/03 00:12:05;;;;;;;10.20;7.27;;;14.40;75.90;;;;;;5133271;27;20469;-75
2023/06/03 00:14:32;;;;;;;8.80;6.20;;;14.30;75.60;;;;;;5133289;27;20490;-75
2023/06/03 00:16:59;;;;;;;6.97;5.00;;;14.30;75.70;;;;;;5133359;27;20947;-75
2023/06/03 00:19:26;;;;;;;7.57;5.50;;;14.30;75.80;;;;;;5133508;28;20466;-75
2023/06/03 00:21:54;;;;;;;8.07;5.93;;;14.20;75.80;;;;;;5133404;28;20807;-75
2023/06/03 00:24:23;;;;;;;8.10;5.73;;;14.20;76.00;;;;;;5133247;28;20441;-75
2023/06/03 00:26:50;;;;;;;6.67;5.53;;;14.10;76.30;;;;;;5133567;28;20499;-74
2023/06/03 00:29:18;;;;;;;7.93;5.90;;;14.10;76.70;;;;;;5133377;28;20537;-75
2023/06/03 00:31:45;;;;;;;9.20;6.17;;;14.10;76.90;;;;;;5133369;28;20506;-75
2023/06/03 00:34:12;;;;;;;12.03;5.90;;;14.00;77.00;;;;;;5133700;28;20487;-75
2023/06/03 00:36:42;;;;;;;8.63;6.73;;;14.00;77.10;;;;;;5133481;28;20433;-74
2023/06/03 00:39:10;;;;;;;8.90;6.20;;;14.00;77.20;;;;;;5133578;28;20931;-75
2023/06/03 00:41:38;;;;;;;11.23;5.50;;;14.00;77.10;;;;;;5133507;28;20474;-75
2023/06/03 00:44:05;;;;;;;8.83;5.77;;;13.90;77.30;;;;;;5133658;28;20485;-75
2023/06/03 00:46:42;;;;;;;9.60;6.60;;;13.90;77.60;;;;;;5133443;28;20475;-74
2023/06/03 00:49:12;;;;;;;9.17;6.50;;;13.80;77.90;;;;;;5133392;28;20466;-75
2023/06/03 00:51:40;;;;;;;8.00;5.87;;;13.80;77.70;;;;;;5133128;28;20429;-75
2023/06/03 00:54:07;;;;;;;11.50;6.17;;;13.80;77.80;;;;;;5133618;28;20860;-75
2023/06/03 00:56:42;;;;;;;9.47;6.50;;;13.80;78.20;;;;;;5133496;28;20483;-74
2023/06/03 00:59:11;;;;;;;8.37;6.37;;;13.70;78.60;;;;;;5132905;28;20923;-75
2023/06/03 01:01:38;;;;;;;9.80;6.80;;;13.70;78.90;;;;;;5133142;28;20472;-74
2023/06/03 01:04:06;;;;;;;9.10;6.33;;;13.70;79.20;;;;;;5133477;28;20469;-74
2023/06/03 01:06:45;;;;;;;10.30;6.27;;;13.70;79.20;;;;;;5133313;27;20970;-74
2023/06/03 01:09:25;;;;;;;7.00;5.87;;;13.70;79.30;;;;;;5136305;27;20970;-75
2023/06/03 01:12:03;;;;;;;9.52;5.97;;;13.70;79.20;;;;;;5137297;27;20475;-74
2023/06/03 01:14:37;;;;;;;8.80;6.60;;;13.70;78.90;;;;;;5137773;27;20281;-75
2023/06/03 01:17:09;;;;;;;12.70;7.20;;;13.70;78.60;;;;;;5137521;27;20487;-74
2023/06/03 01:19:47;;;;;;;10.60;5.90;;;13.60;78.80;;;;;;5137478;27;20532;-74
2023/06/03 01:22:16;;;;;;;10.03;6.67;;;13.60;78.90;;;;;;5137317;27;20868;-75
2023/06/03 01:24:45;;;;;;;10.07;6.17;;;13.60;79.00;;;;;;5137340;27;20439;-74
2023/06/03 01:27:12;;;;;;;9.57;6.60;;;13.50;79.00;;;;;;5136693;27;20441;-74
2023/06/03 01:29:41;;;;;;;8.80;6.27;;;13.50;79.00;;;;;;5136823;27;20485;-75
2023/06/03 01:32:13;;;;;;;13.43;6.73;;;13.50;79.30;;;;;;5137075;27;20828;-74
2023/06/03 01:34:41;;;;;;;9.80;7.27;;;13.50;80.30;;;;;;5136420;27;20465;-75
2023/06/03 01:37:09;;;;;;;12.50;7.40;;;13.50;79.70;;;;;;5136814;27;20436;-75
2023/06/03 01:39:39;;;;;;;9.53;6.57;;;13.40;79.80;;;;;;5136726;27;20429;-75
2023/06/03 01:42:09;;;;;;;12.17;7.40;;;13.30;81.00;;;;;;5136441;27;20441;-74
2023/06/03 01:44:36;;;;;;;10.23;7.30;;;13.30;80.30;;;;;;5136269;27;20539;-74
2023/06/03 01:47:04;;;;;;;10.63;7.15;;;13.20;80.70;;;;;;5136738;27;20248;-75
2023/06/03 01:49:31;;;;;;;10.55;6.47;;;13.30;81.10;;;;;;5136114;27;20212;-75
2023/06/03 01:51:58;;;;;;;7.90;5.80;;;13.20;81.00;;;;;;5136696;27;20191;-75
2023/06/03 01:54:25;;;;;;;8.93;6.93;;;13.20;81.10;;;;;;5136428;27;20483;-75
2023/06/03 01:56:53;;;;;;;9.13;6.05;;;13.20;81.00;;;;;;5136364;27;20433;-75
2023/06/03 01:59:23;;;;;;;8.20;6.90;;;13.20;81.10;;;;;;5136403;27;20199;-75
2023/06/03 02:01:52;;;;;;;9.37;6.90;;;13.20;81.40;;;;;;5135868;27;20549;-74
2023/06/03 02:04:19;;;;;;;8.82;6.40;;;13.10;81.50;;;;;;5136243;27;20454;-75
2023/06/03 02:06:50;;;;;;;9.40;6.78;;;13.10;82.20;;;;;;5135944;27;20231;-74
2023/06/03 02:09:17;;;;;;;8.00;6.70;;;13.00;82.00;;;;;;5135487;27;20310;-74
2023/06/03 02:11:44;;;;;;;8.13;6.20;;;13.00;82.30;;;;;;5135988;27;20234;-74
2023/06/03 02:14:12;;;;;;;9.35;6.38;;;13.00;82.80;;;;;;5135625;27;20679;-74
2023/06/03 02:16:41;;;;;;;9.07;6.50;;;13.00;82.80;;;;;;5135842;27;20275;-75
2023/06/03 02:19:12;;;;;;;11.00;6.32;;;13.00;82.70;;;;;;5135242;27;20649;-75
2023/06/03 02:21:40;;;;;;;16.42;6.70;;;12.90;82.80;;;;;;5135634;27;20635;-74
2023/06/03 02:24:14;;;;;;;8.38;5.95;;;12.80;82.80;;;;;;5135859;27;20282;-75
2023/06/03 02:26:49;;;;;;;8.32;5.72;;;12.80;83.00;;;;;;5135314;27;20237;-75
2023/06/03 02:29:17;;;;;;;10.80;6.83;;;12.80;83.10;;;;;;5135955;27;20550;-74
2023/06/03 02:31:45;;;;;;;10.00;6.85;;;12.70;84.20;;;;;;5135127;27;20429;-74
2023/06/03 02:34:12;;;;;;;10.82;6.88;;;12.70;84.30;;;;;;5135753;27;20227;-74
2023/06/03 02:36:39;;;;;;;9.23;7.00;;;12.60;84.80;;;;;;5135427;27;20227;-74
2023/06/03 02:39:09;;;;;;;9.23;6.20;;;12.50;86.00;;;;;;5135380;27;20202;-73
2023/06/03 02:41:36;;;;;;;8.57;7.13;;;12.50;86.50;;;;;;5135124;27;20634;-74
2023/06/03 02:44:06;;;;;;;12.00;6.72;;;12.50;86.60;;;;;;5135496;27;20219;-73
2023/06/03 02:46:33;;;;;;;9.77;6.97;;;12.50;86.10;;;;;;5135490;27;20600;-73
2023/06/03 02:49:04;;;;;;;10.75;6.70;;;12.50;86.60;;;;;;5135611;27;20236;-74
2023/06/03 02:51:35;;;;;;;11.50;6.97;;;12.50;86.90;;;;;;5135420;27;20311;-74
2023/06/03 02:54:02;;;;;;;8.88;6.20;;;12.50;87.10;;;;;;5135587;27;20202;-74
2023/06/03 02:56:29;;;;;;;8.93;6.22;;;12.40;87.10;;;;;;5135312;27;20195;-73
2023/06/03 02:58:56;;;;;;;8.13;6.32;;;12.50;87.40;;;;;;5135162;27;20222;-74
2023/06/03 03:01:24;;;;;;;12.05;6.53;;;12.50;86.60;;;;;;5134568;27;20610;-74
2023/06/03 03:03:53;;;;;;;9.15;6.50;;;12.50;86.30;;;;;;5135122;27;20196;-74
2023/06/03 03:06:22;;;;;;;9.55;6.80;;;12.40;86.30;;;;;;5135370;27;20188;-74
2023/06/03 03:08:50;;;;;;;10.07;6.68;;;12.40;86.60;;;;;;5134884;27;20706;-74
2023/06/03 03:11:17;;;;;;;9.85;6.65;;;12.30;87.00;;;;;;5135062;27;20211;-73
2023/06/03 03:13:46;;;;;;;11.20;6.70;;;12.30;86.20;;;;;;5134620;27;20231;-73
2023/06/03 03:16:15;;;;;;;10.63;8.13;;;12.30;86.20;;;;;;5134814;27;20192;-73
2023/06/03 03:18:43;;;;;;;13.50;10.52;;;12.20;86.20;;;;;;5134483;27;20637;-74
2023/06/03 03:21:10;;;;;;;113.82;71.88;;;12.20;86.50;;;;;;5134827;27;20279;-73
2023/06/03 03:23:38;;;;;;;171.52;103.43;;;12.20;87.00;;;;;;5134438;27;20241;-73
2023/06/03 03:26:08;;;;;;;66.63;38.83;;;12.20;88.30;;;;;;5134582;27;20215;-73
2023/06/03 03:28:36;;;;;;;31.23;23.80;;;12.20;88.30;;;;;;5134711;27;20196;-75
2023/06/03 03:31:08;;;;;;;38.35;24.63;;;12.20;88.60;;;;;;5133713;27;20211;-73
2023/06/03 03:33:35;;;;;;;66.72;39.10;;;12.20;89.50;;;;;;5134856;27;20299;-73
2023/06/03 03:36:08;;;;;;;34.55;24.65;;;12.20;89.80;;;;;;5134378;27;20187;-73
2023/06/03 03:38:38;;;;;;;23.95;16.73;;;12.20;89.50;;;;;;5134719;27;20187;-73
2023/06/03 03:41:06;;;;;;;27.00;18.77;;;12.20;89.00;;;;;;5134340;27;20184;-73
2023/06/03 03:43:34;;;;;;;26.67;17.70;;;12.20;88.80;;;;;;5134253;27;20195;-73
2023/06/03 03:46:09;;;;;;;25.92;16.52;;;12.30;88.70;;;;;;5134106;27;20713;-73
2023/06/03 03:48:36;;;;;;;18.15;13.10;;;12.20;88.30;;;;;;5134238;27;20203;-73
2023/06/03 03:51:03;;;;;;;16.67;9.60;;;12.20;88.30;;;;;;5133831;27;20216;-73
2023/06/03 03:53:35;;;;;;;16.00;7.88;;;12.20;88.70;;;;;;5134331;27;20223;-74
2023/06/03 03:56:03;;;;;;;10.10;7.22;;;12.20;88.80;;;;;;5134141;27;20231;-73
2023/06/03 03:58:41;;;;;;;10.82;6.97;;;12.20;89.30;;;;;;5134137;27;20192;-73
2023/06/03 04:01:12;;;;;;;10.60;7.50;;;12.20;89.40;;;;;;5133960;27;20270;-74
2023/06/03 04:03:41;;;;;;;14.77;8.55;;;12.20;89.50;;;;;;5134149;27;20187;-74
2023/06/03 04:06:08;;;;;;;8.88;6.65;;;12.20;89.40;;;;;;5133751;27;20229;-74
2023/06/03 04:08:45;;;;;;;11.75;8.38;;;12.20;89.60;;;;;;5134253;27;20226;-74
2023/06/03 04:11:20;;;;;;;11.43;8.20;;;12.20;89.70;;;;;;5133698;27;20705;-73
2023/06/03 04:13:53;;;;;;;10.82;8.02;;;12.20;89.50;;;;;;5133691;27;20226;-73
2023/06/03 04:16:51;;;;;;;8.63;7.57;;;12.20;89.70;;;;;;5133903;27;20184;-73
2023/06/03 04:19:21;;;;;;;10.20;7.82;;;12.20;89.80;;;;;;5134039;27;20198;-74
2023/06/03 04:21:48;;;;;;;11.50;8.20;;;12.20;90.40;;;;;;5133722;27;20192;-74
2023/06/03 04:24:15;;;;;;;11.05;7.60;;;12.20;90.40;;;;;;5133992;28;20634;-74
2023/06/03 04:26:44;;;;;;;11.80;7.90;;;12.30;90.60;;;;;;5133789;28;20650;-73
2023/06/03 04:29:11;;;;;;;8.18;6.95;;;12.40;90.40;;;;;;5133645;28;20270;-73
2023/06/03 04:31:38;;;;;;;10.35;6.95;;;12.40;90.60;;;;;;5133508;28;20648;-73
2023/06/03 04:34:11;;;;;;;10.65;7.50;;;12.40;90.70;;;;;;5133720;28;20242;-73
2023/06/03 04:36:38;;;;;;;15.88;7.85;;;12.50;91.10;;;;;;5133460;28;20227;-73
2023/06/03 04:39:06;;;;;;;11.07;7.88;;;12.40;91.20;;;;;;5133266;28;20240;-74
2023/06/03 04:41:33;;;;;;;10.48;7.72;;;12.50;91.50;;;;;;5134279;27;20260;-73
2023/06/03 04:44:04;;;;;;;11.05;8.23;;;12.60;91.80;;;;;;5138062;27;20244;-74
2023/06/03 04:46:31;;;;;;;12.57;7.65;;;12.70;92.00;;;;;;5137608;27;20192;-74
2023/06/03 04:48:59;;;;;;;11.23;8.20;;;12.80;91.90;;;;;;5137773;27;20188;-74
2023/06/03 04:51:27;;;;;;;11.68;7.95;;;12.90;91.80;;;;;;5137614;27;20219;-74
2023/06/03 04:54:00;;;;;;;18.02;9.75;;;13.00;91.70;;;;;;5137594;27;20635;-74
2023/06/03 04:56:32;;;;;;;16.77;11.65;;;13.10;91.80;;;;;;5137199;27;20207;-73
2023/06/03 04:59:04;;;;;;;16.88;11.20;;;13.20;92.00;;;;;;5137394;27;20278;-74
2023/06/03 05:01:36;;;;;;;13.73;9.93;;;13.30;92.30;;;;;;5137271;27;20261;-73
2023/06/03 05:04:03;;;;;;;13.97;9.13;;;13.30;92.60;;;;;;5137449;27;20931;-74
2023/06/03 05:06:36;;;;;;;12.90;10.50;;;13.50;92.80;;;;;;5137524;27;20482;-74
2023/06/03 05:09:03;;;;;;;10.50;8.23;;;13.60;92.70;;;;;;5137031;27;20476;-74
2023/06/03 05:11:30;;;;;;;13.50;8.20;;;13.70;92.40;;;;;;5134309;27;20519;-74
2023/06/03 05:13:57;;;;;;;14.80;9.63;;;13.80;92.10;;;;;;5135470;27;20452;-74
2023/06/03 05:16:25;;;;;;;15.87;10.53;;;13.90;92.10;;;;;;5135694;27;20470;-74
2023/06/03 05:18:52;;;;;;;13.70;10.37;;;14.10;92.10;;;;;;5135557;27;20518;-75
2023/06/03 05:21:20;;;;;;;11.07;8.83;;;14.20;92.20;;;;;;5134525;27;20464;-74
2023/06/03 05:23:48;;;;;;;15.37;9.33;;;14.40;92.20;;;;;;5134628;27;20527;-73
2023/06/03 05:26:17;;;;;;;12.53;8.43;;;14.50;92.20;;;;;;5134718;27;20467;-74
2023/06/03 05:28:45;;;;;;;10.77;8.07;;;14.60;92.20;;;;;;5134953;27;20540;-73
2023/06/03 05:31:14;;;;;;;17.20;9.50;;;14.70;92.00;;;;;;5134381;27;20836;-73
2023/06/03 05:33:45;;;;;;;11.57;8.47;;;14.80;91.40;;;;;;5134470;27;20426;-73
2023/06/03 05:36:12;;;;;;;13.63;8.90;;;15.00;90.90;;;;;;5134583;27;20927;-73
2023/06/03 05:38:41;;;;;;;17.73;9.00;;;15.10;90.50;;;;;;5134596;27;20446;-73
2023/06/03 05:41:08;;;;;;;11.83;8.50;;;15.20;90.10;;;;;;5130647;27;20456;-73
2023/06/03 05:43:42;;;;;;;11.77;8.53;;;15.30;90.00;;;;;;5134940;27;20492;-74
2023/06/03 05:46:09;;;;;;;15.07;9.20;;;15.40;89.80;;;;;;5134854;27;20438;-74
2023/06/03 05:48:36;;;;;;;16.80;8.90;;;15.50;89.50;;;;;;5134686;27;20440;-74
2023/06/03 05:51:05;;;;;;;11.50;9.57;;;15.70;89.00;;;;;;5134695;27;20990;-75
2023/06/03 05:53:32;;;;;;;13.03;8.30;;;15.80;89.10;;;;;;5134684;27;20433;-75
2023/06/03 05:55:59;;;;;;;12.93;7.07;;;15.90;88.90;;;;;;5135352;27;20438;-75
2023/06/03 05:58:26;;;;;;;10.97;8.70;;;16.10;88.20;;;;;;5129553;27;20437;-75
2023/06/03 06:00:53;;;;;;;14.57;8.27;;;16.20;86.70;;;;;;5131438;27;20452;-75
2023/06/03 06:03:20;;;;;;;11.50;7.60;;;16.30;85.90;;;;;;5135152;27;20909;-75
2023/06/03 06:05:48;;;;;;;8.77;7.83;;;16.40;84.40;;;;;;5134877;27;20438;-75
2023/06/03 06:08:17;;;;;;;15.13;8.10;;;16.60;84.70;;;;;;5130710;27;20480;-75
2023/06/03 06:10:44;;;;;;;14.13;7.43;;;16.70;82.70;;;;;;5134148;27;20435;-75
2023/06/03 06:13:11;;;;;;;12.50;8.93;;;16.80;81.20;;;;;;5132379;27;20835;-74
2023/06/03 06:15:39;;;;;;;12.83;7.03;;;16.80;80.90;;;;;;5133924;27;20952;-73
2023/06/03 06:18:08;;;;;;;13.30;8.20;;;16.90;79.80;;;;;;5135293;27;20433;-75
2023/06/03 06:20:35;;;;;;;10.10;8.20;;;17.00;78.40;;;;;;5134314;27;20439;-76
2023/06/03 06:23:02;;;;;;;11.13;7.83;;;17.10;78.70;;;;;;5135037;27;20446;-75
2023/06/03 06:25:34;;;;;;;14.23;7.47;;;17.20;78.30;;;;;;5136407;27;20860;-75
2023/06/03 06:28:01;;;;;;;14.13;7.17;;;17.30;78.30;;;;;;5135017;27;20447;-76
2023/06/03 06:30:30;;;;;;;10.43;7.37;;;17.30;78.10;;;;;;5135264;27;20442;-75
2023/06/03 06:32:59;;;;;;;11.77;7.60;;;17.40;77.60;;;;;;5135718;27;21009;-76
2023/06/03 06:35:29;;;;;;;10.13;7.00;;;17.60;77.80;;;;;;5133568;27;20544;-75
2023/06/03 06:37:57;;;;;;;9.10;7.10;;;17.70;77.70;;;;;;5135572;27;20472;-75
2023/06/03 06:40:30;;;;;;;12.00;7.60;;;17.80;77.70;;;;;;5125972;27;20429;-75
2023/06/03 06:42:58;;;;;;;8.77;6.40;;;18.00;77.00;;;;;;5135156;27;20561;-76
2023/06/03 06:45:30;;;;;;;8.63;5.90;;;18.10;75.10;;;;;;5135121;27;20791;-75
2023/06/03 06:48:03;;;;;;;10.73;6.60;;;18.20;72.60;;;;;;5130277;27;20435;-75
2023/06/03 06:50:46;;;;;;;15.80;6.30;;;18.20;73.30;;;;;;5134525;27;20532;-74
2023/06/03 06:53:14;;;;;;;11.77;6.83;;;18.40;73.60;;;;;;5130352;27;20528;-74
2023/06/03 06:55:49;;;;;;;10.13;7.57;;;18.50;71.80;;;;;;5133367;27;20441;-75
2023/06/03 06:58:18;;;;;;;10.90;6.57;;;18.60;71.00;;;;;;5134885;27;20434;-75
2023/06/03 07:00:45;;;;;;;9.87;6.47;;;18.70;71.50;;;;;;5135259;27;20429;-75
2023/06/03 07:03:22;;;;;;;9.53;6.87;;;18.90;72.60;;;;;;5136418;27;20490;-75
2023/06/03 07:05:53;;;;;;;12.57;6.20;;;19.10;72.40;;;;;;5133176;27;20478;-75
2023/06/03 07:08:23;;;;;;;10.20;6.47;;;19.20;70.50;;;;;;5133394;27;20541;-74
2023/06/03 07:10:50;;;;;;;18.77;6.53;;;19.30;68.80;;;;;;5133630;27;20443;-75
2023/06/03 07:13:18;;;;;;;10.37;6.23;;;19.40;66.60;;;;;;5136220;27;20435;-74
2023/06/03 07:15:45;;;;;;;9.10;6.70;;;19.40;67.90;;;;;;5134450;27;20431;-76
2023/06/03 07:18:13;;;;;;;10.97;7.50;;;19.60;68.60;;;;;;5134813;27;20456;-75
2023/06/03 07:20:46;;;;;;;13.63;7.03;;;19.80;66.40;;;;;;5135906;27;20427;-74
2023/06/03 07:23:20;;;;;;;7.90;5.80;;;19.80;65.10;;;;;;5130975;27;20484;-75
2023/06/03 07:25:51;;;;;;;8.57;5.90;;;19.90;65.00;;;;;;5136077;27;20500;-75
2023/06/03 07:28:28;;;;;;;15.80;7.47;;;20.10;65.80;;;;;;5136109;27;20444;-75
2023/06/03 07:30:57;;;;;;;18.03;6.47;;;20.30;65.60;;;;;;5133795;27;20439;-76
2023/06/03 07:33:27;;;;;;;15.73;6.67;;;20.40;63.60;;;;;;5132260;27;20966;-75
2023/06/03 07:35:55;;;;;;;9.70;7.53;;;20.40;61.60;;;;;;5134447;27;20497;-74
2023/06/03 07:38:56;;;;;;;6.87;5.80;;;20.50;63.10;;;;;;5133439;27;20432;-75
2023/06/03 07:41:40;;;;;;;9.33;5.80;;;20.60;64.30;;;;;;5133792;27;20457;-75
2023/06/03 07:44:10;;;;;;;7.97;5.60;;;20.70;62.10;;;;;;5132147;27;20439;-75
2023/06/03 07:46:40;;;;;;;10.57;6.37;;;20.90;61.90;;;;;;5132026;27;20432;-75
2023/06/03 07:49:09;;;;;;;10.03;6.00;;;21.00;62.00;;;;;;5133378;27;20433;-74
2023/06/03 07:51:39;;;;;;;8.50;6.20;;;21.10;62.40;;;;;;5136832;27;20566;-75
2023/06/03 07:54:06;;;;;;;9.60;6.00;;;21.20;61.00;;;;;;5136662;27;20911;-76
2023/06/03 07:56:34;;;;;;;8.40;6.10;;;21.40;61.40;;;;;;5136443;27;20475;-75
2023/06/03 07:59:04;;;;;;;7.97;6.20;;;21.50;60.40;;;;;;5137150;27;20436;-74
2023/06/03 08:01:35;;;;;;;8.63;6.33;;;21.60;58.00;;;;;;5137253;27;20585;-75
2023/06/03 08:04:05;;;;;;;8.17;5.13;;;21.60;59.60;;;;;;5135796;27;20443;-74
2023/06/03 08:06:36;;;;;;;10.37;5.47;;;21.80;60.40;;;;;;5136296;27;20740;-75
2023/06/03 08:09:03;;;;;;;7.60;5.53;;;21.90;59.50;;;;;;5136098;27;20467;-75
2023/06/03 08:11:33;;;;;;;10.87;5.90;;;22.10;59.60;;;;;;5136399;27;20471;-75
2023/06/03 08:14:00;;;;;;;7.47;5.03;;;22.20;59.40;;;;;;5136268;27;20436;-75
2023/06/03 08:16:27;;;;;;;7.03;5.30;;;22.40;59.00;;;;;;5135392;27;20502;-75
2023/06/03 08:18:55;;;;;;;9.73;6.13;;;22.50;57.80;;;;;;5135376;27;20524;-75
2023/06/03 08:21:30;;;;;;;7.77;5.63;;;22.70;58.20;;;;;;5134781;27;20491;-76
2023/06/03 08:23:57;;;;;;;8.77;5.83;;;22.80;57.60;;;;;;5135072;28;20480;-76
2023/06/03 08:26:24;;;;;;;10.73;6.40;;;22.90;56.70;;;;;;5135722;28;20792;-76
2023/06/03 08:28:51;;;;;;;9.13;5.70;;;23.10;57.20;;;;;;5137120;28;20849;-75
2023/06/03 08:31:18;;;;;;;10.47;5.40;;;23.20;56.40;;;;;;5135709;28;20494;-75
2023/06/03 08:33:45;;;;;;;7.10;5.90;;;23.20;55.90;;;;;;5135127;28;20454;-75
2023/06/03 08:36:13;;;;;;;8.07;5.93;;;23.30;56.10;;;;;;5134838;28;20527;-75
2023/06/03 08:38:40;;;;;;;12.03;5.47;;;23.40;54.50;;;;;;5134212;28;20938;-75
2023/06/03 08:41:08;;;;;;;13.17;5.80;;;23.50;55.90;;;;;;5134863;28;20473;-75
2023/06/03 08:43:43;;;;;;;10.47;5.47;;;23.70;56.90;;;;;;5134495;28;20444;-75
2023/06/03 08:46:19;;;;;;;11.70;6.03;;;23.80;56.40;;;;;;5135613;28;20460;-75
2023/06/03 08:48:51;;;;;;;10.90;5.53;;;24.00;55.50;;;;;;5135218;28;20917;-75
2023/06/03 08:51:23;;;;;;;8.73;4.93;;;24.10;54.20;;;;;;5135560;28;20436;-75
2023/06/03 08:53:51;;;;;;;6.67;5.23;;;24.20;54.40;;;;;;5135297;28;20440;-76
2023/06/03 08:56:19;;;;;;;11.13;6.30;;;24.30;54.50;;;;;;5135043;28;20435;-76
2023/06/03 08:58:48;;;;;;;7.53;5.30;;;24.40;53.20;;;;;;5135795;28;20822;-75
2023/06/03 09:01:17;;;;;;;16.13;6.00;;;24.50;51.70;;;;;;5135431;28;20491;-75
2023/06/03 09:03:46;;;;;;;8.40;5.10;;;24.50;51.30;;;;;;5134545;28;20440;-76
2023/06/03 09:06:14;;;;;;;9.90;6.00;;;24.50;51.70;;;;;;5134877;28;20465;-76
2023/06/03 09:08:43;;;;;;;8.40;6.10;;;24.60;50.80;;;;;;5134015;28;20522;-76
2023/06/03 09:11:12;;;;;;;8.00;5.70;;;24.80;52.70;;;;;;5133426;28;20469;-75
2023/06/03 09:13:41;;;;;;;7.27;5.50;;;24.80;50.20;;;;;;5133910;28;20479;-76
2023/06/03 09:16:09;;;;;;;8.37;6.20;;;24.90;51.00;;;;;;5133930;28;20531;-75
2023/06/03 09:18:36;;;;;;;8.27;5.73;;;24.90;51.30;;;;;;5134655;28;20447;-75
2023/06/03 09:21:04;;;;;;;7.90;5.07;;;25.10;50.80;;;;;;5133701;28;20430;-75
2023/06/03 09:23:31;;;;;;;9.37;5.60;;;25.10;51.50;;;;;;5133672;28;21317;-76
2023/06/03 09:26:00;;;;;;;7.93;6.00;;;25.20;50.60;;;;;;5134223;28;20465;-76
2023/06/03 09:28:27;;;;;;;6.00;4.73;;;25.30;50.80;;;;;;5134028;27;20783;-76
2023/06/03 09:30:54;;;;;;;8.17;5.20;;;25.40;49.80;;;;;;5136901;27;20443;-75
2023/06/03 09:33:22;;;;;;;11.00;6.00;;;25.50;49.40;;;;;;5134157;27;20482;-75
2023/06/03 09:36:08;;;;;;;11.40;6.60;;;25.50;49.40;;;;;;5136961;27;20494;-75
2023/06/03 09:38:48;;;;;;;7.27;5.57;;;25.40;49.30;;;;;;5136387;27;20473;-76
2023/06/03 09:41:18;;;;;;;8.80;5.50;;;25.50;50.20;;;;;;5136859;27;20465;-76
2023/06/03 09:43:53;;;;;;;7.40;4.90;;;25.60;50.50;;;;;;5136790;27;20438;-75
2023/06/03 09:46:21;;;;;;;11.00;5.97;;;25.80;48.50;;;;;;5136490;27;20450;-75
2023/06/03 09:48:48;;;;;;;9.93;5.70;;;25.80;49.00;;;;;;5136580;27;20434;-76
2023/06/03 09:51:15;;;;;;;11.07;7.20;;;25.90;48.30;;;;;;5136531;27;20825;-75
2023/06/03 09:53:42;;;;;;;7.10;5.27;;;25.90;49.40;;;;;;5136488;27;20826;-76
2023/06/03 09:56:25;;;;;;;8.27;5.60;;;26.00;49.10;;;;;;5136244;27;20531;-75
2023/06/03 09:58:53;;;;;;;9.40;5.37;;;26.10;49.00;;;;;;5136331;27;20438;-76
2023/06/03 10:01:32;;;;;;;8.77;6.00;;;26.20;48.00;;;;;;5136193;27;20521;-76
2023/06/03 10:04:00;;;;;;;8.13;5.70;;;26.30;47.40;;;;;;5135815;27;20429;-76
2023/06/03 10:06:27;;;;;;;15.50;6.30;;;26.30;46.80;;;;;;5136195;27;20912;-76
2023/06/03 10:08:54;;;;;;;8.57;5.67;;;26.40;47.50;;;;;;5136023;27;20471;-76
2023/06/03 10:11:23;;;;;;;12.00;6.30;;;26.50;48.40;;;;;;5136283;27;20483;-76
2023/06/03 10:14:04;;;;;;;10.00;5.47;;;26.60;48.10;;;;;;5135901;27;21002;-76
2023/06/03 10:16:31;;;;;;;11.53;5.70;;;26.70;48.50;;;;;;5135881;27;20493;-76
2023/06/03 10:18:58;;;;;;;7.80;6.27;;;26.80;48.80;;;;;;5136045;27;20476;-76
2023/06/03 10:21:29;;;;;;;10.67;5.27;;;26.90;46.40;;;;;;5135748;27;20442;-75
2023/06/03 10:24:00;;;;;;;9.17;6.00;;;26.80;45.10;;;;;;5135915;27;20906;-76
2023/06/03 10:26:31;;;;;;;9.57;5.60;;;26.90;47.30;;;;;;5135963;27;20523;-76
2023/06/03 10:28:59;;;;;;;6.70;4.80;;;26.90;46.50;;;;;;5135456;27;20539;-76
2023/06/03 10:31:28;;;;;;;6.53;4.90;;;27.00;48.20;;;;;;5135934;27;20440;-76
2023/06/03 10:33:56;;;;;;;10.00;5.67;;;27.10;47.80;;;;;;5135600;27;20532;-76
2023/06/03 10:36:24;;;;;;;12.27;5.90;;;27.20;46.60;;;;;;5135613;27;20465;-75
2023/06/03 10:38:53;;;;;;;7.87;5.77;;;27.20;45.90;;;;;;5135672;27;20562;-76
2023/06/03 10:41:20;;;;;;;8.90;6.17;;;27.20;45.20;;;;;;5135397;27;20430;-76
2023/06/03 10:43:50;;;;;;;9.37;6.13;;;27.30;46.90;;;;;;5133876;27;20468;-75
2023/06/03 10:46:18;;;;;;;8.97;6.17;;;27.40;45.40;;;;;;5134980;27;20520;-76
2023/06/03 10:48:47;;;;;;;8.10;5.97;;;27.50;46.20;;;;;;5135405;27;20468;-76
2023/06/03 10:51:31;;;;;;;9.50;5.13;;;27.60;45.70;;;;;;5135535;27;20466;-76
2023/06/03 10:54:16;;;;;;;11.73;5.40;;;27.70;44.90;;;;;;5135277;27;20573;-76
2023/06/03 10:56:50;;;;;;;7.80;6.10;;;27.80;44.50;;;;;;5135370;27;20815;-77
2023/06/03 10:59:23;;;;;;;10.53;5.67;;;27.90;43.40;;;;;;5135334;27;20472;-75
2023/06/03 11:02:01;;;;;;;7.90;5.83;;;27.80;42.20;;;;;;5135248;27;20520;-76
2023/06/03 11:04:29;;;;;;;8.77;5.70;;;27.80;43.70;;;;;;5135075;27;20433;-76
2023/06/03 11:06:57;;;;;;;7.50;4.90;;;27.90;43.80;;;;;;5135262;27;20571;-76
2023/06/03 11:09:35;;;;;;;8.67;5.87;;;27.90;43.20;;;;;;5134763;27;20469;-76
2023/06/03 11:12:05;;;;;;;8.10;5.83;;;27.90;42.70;;;;;;5135164;27;20463;-75
2023/06/03 11:14:56;;;;;;;8.60;5.47;;;27.80;41.10;;;;;;5135211;27;20815;-75
2023/06/03 11:17:25;;;;;;;7.23;5.20;;;27.70;42.90;;;;;;5134638;27;20417;-75
2023/06/03 11:19:54;;;;;;;9.63;6.13;;;27.80;43.30;;;;;;5134660;27;20466;-76
2023/06/03 11:22:42;;;;;;;7.10;5.40;;;28.00;43.70;;;;;;5134615;27;20475;-76
2023/06/03 11:25:25;;;;;;;8.83;5.17;;;28.10;43.00;;;;;;5134626;27;20923;-75
2023/06/03 11:27:52;;;;;;;8.30;5.10;;;28.10;40.70;;;;;;5134587;27;20513;-76
2023/06/03 11:30:21;;;;;;;8.23;4.97;;;28.10;42.30;;;;;;5134522;27;20468;-75
2023/06/03 11:33:11;;;;;;;9.30;5.50;;;28.10;42.00;;;;;;5134510;27;20508;-76
2023/06/03 11:35:38;;;;;;;8.33;5.00;;;28.10;41.60;;;;;;5134244;27;21042;-76
2023/06/03 11:38:05;;;;;;;7.57;5.27;;;28.00;41.30;;;;;;5134422;27;20921;-75
2023/06/03 11:40:45;;;;;;;8.70;4.63;;;27.80;40.10;;;;;;5134259;27;20481;-76
2023/06/03 11:43:12;;;;;;;9.20;5.50;;;27.80;41.70;;;;;;5134376;27;20434;-76
2023/06/03 11:45:40;;;;;;;6.60;5.70;;;27.80;42.20;;;;;;5134096;27;20465;-76
2023/06/03 11:48:10;;;;;;;7.43;4.57;;;27.80;41.50;;;;;;5134399;27;20474;-75
2023/06/03 11:50:47;;;;;;;7.53;5.27;;;27.90;41.70;;;;;;5134080;27;20472;-76
2023/06/03 11:53:35;;;;;;;6.93;5.00;;;28.10;42.60;;;;;;5133726;27;20513;-76
2023/06/03 11:56:06;;;;;;;9.80;4.30;;;28.40;41.80;;;;;;5134575;27;20432;-76
2023/06/03 11:58:33;;;;;;;8.77;4.77;;;28.50;40.60;;;;;;5134258;27;20527;-75
2023/06/03 12:01:16;;;;;;;7.87;5.30;;;28.40;40.30;;;;;;5134003;27;20436;-76
2023/06/03 12:03:57;;;;;;;9.13;5.23;;;28.50;40.50;;;;;;5134223;27;20926;-76
2023/06/03 12:06:24;;;;;;;8.63;4.67;;;28.50;40.40;;;;;;5134212;27;20522;-76
2023/06/03 12:08:51;;;;;;;6.23;4.37;;;28.60;39.20;;;;;;5133914;27;20498;-76
2023/06/03 12:11:30;;;;;;;8.07;4.97;;;28.50;38.90;;;;;;5134066;27;20857;-76
2023/06/03 12:13:57;;;;;;;5.77;4.90;;;28.50;39.60;;;;;;5133685;27;20486;-76
2023/06/03 12:16:31;;;;;;;7.90;5.60;;;28.60;39.20;;;;;;5133550;27;20938;-76
2023/06/03 12:19:00;;;;;;;12.60;5.80;;;28.70;38.20;;;;;;5134104;27;20450;-76
2023/06/03 12:21:27;;;;;;;8.20;5.43;;;28.70;39.50;;;;;;5133983;27;20527;-76
2023/06/03 12:23:54;;;;;;;5.60;4.17;;;28.70;39.80;;;;;;5134033;27;20925;-75
2023/06/03 12:26:21;;;;;;;6.00;5.20;;;28.80;39.60;;;;;;5133711;28;20541;-76
2023/06/03 12:28:48;;;;;;;9.73;5.13;;;28.70;38.10;;;;;;5133756;28;20464;-76
2023/06/03 12:31:18;;;;;;;11.30;5.37;;;28.70;39.00;;;;;;5132165;28;20431;-76
2023/06/03 12:33:47;;;;;;;8.10;5.50;;;28.70;39.40;;;;;;5133033;28;20491;-75
2023/06/03 12:36:15;;;;;;;6.60;4.67;;;28.60;37.50;;;;;;5133115;28;20444;-77
2023/06/03 12:38:55;;;;;;;6.10;4.47;;;28.30;38.60;;;;;;5133015;28;20438;-76
2023/06/03 12:41:29;;;;;;;12.53;5.60;;;28.20;38.70;;;;;;5133422;28;20522;-75
2023/06/03 12:44:02;;;;;;;7.10;4.70;;;28.10;39.20;;;;;;5134002;28;20451;-76
2023/06/03 12:46:31;;;;;;;6.70;4.60;;;28.10;38.70;;;;;;5133787;28;20456;-76
2023/06/03 12:49:13;;;;;;;12.63;4.67;;;28.10;39.00;;;;;;5134019;28;20469;-76
2023/06/03 12:51:42;;;;;;;7.23;4.57;;;28.20;38.60;;;;;;5133790;28;20629;-76
2023/06/03 12:54:10;;;;;;;6.70;5.67;;;28.10;38.70;;;;;;5133732;28;20526;-75
2023/06/03 12:56:37;;;;;;;7.80;4.57;;;28.00;38.70;;;;;;5133701;28;20440;-76